Página principal
METAR-TAF:

METAR-TAF

Aeroportos :

Samaná, República Dominicana

latitude: 19-11-55N, longitude: 69-25-47W, altura: 18 m

Observação actual do tempo

O boletim foi feito há 1 hora e 53 minutos, às 21:00 UTC
Vento calmo
Temperatura 27°C
Humidade 84%
Pressão 1014 hPa
Visibilidade 10 km ou mais
Nuvens fragmentadasa uma altura de 1800 ft

METAR: MDAB 022100Z 00000KT 9999 BKN018 27/24 Q1014

Hora: 18:53 (22:53 UTC)


TAF: em falta

Observações e previsões do tempo de mais de 4000 aeroportos (mensagens METAR e TAF).

As estações disponíveis são os pontos amarelos e vermelhos sobre o mapa.

Mova o rato sobre o mapa para ver o nome da estação.

Depois clique no ponto para visualizar as observações e previsões meteorológicas.

Para alterar o mapa : clique nos botões verdes com uma cruz preta para aumentar o zoom; no botão verde com uma pitada de zoom; ou nas setas verdes para mapas adjacentes.


METAR-TAF: